sensor_id;sensor_type;location;lat;lon;timestamp;temperature;humidity
75155;HTU21D;63735;44.730;37.818;2023-06-22T00:02:00;22.56;64.55
75155;HTU21D;63735;44.730;37.818;2023-06-22T00:04:27;22.56;64.34
75155;HTU21D;63735;44.730;37.818;2023-06-22T00:06:52;22.55;64.22
75155;HTU21D;63735;44.730;37.818;2023-06-22T00:09:18;22.53;64.21
75155;HTU21D;63735;44.730;37.818;2023-06-22T00:11:45;22.49;64.18
75155;HTU21D;63735;44.730;37.818;2023-06-22T00:14:11;22.49;64.17
75155;HTU21D;63735;44.730;37.818;2023-06-22T00:16:37;22.44;64.31
75155;HTU21D;63735;44.730;37.818;2023-06-22T00:19:03;22.44;64.25
75155;HTU21D;63735;44.730;37.818;2023-06-22T00:21:29;22.42;64.19
75155;HTU21D;63735;44.730;37.818;2023-06-22T00:23:55;22.42;64.21
75155;HTU21D;63735;44.730;37.818;2023-06-22T00:26:23;22.40;64.28
75155;HTU21D;63735;44.730;37.818;2023-06-22T00:28:49;22.38;64.25
75155;HTU21D;63735;44.730;37.818;2023-06-22T00:31:14;22.35;64.30
75155;HTU21D;63735;44.730;37.818;2023-06-22T00:33:40;22.33;64.33
75155;HTU21D;63735;44.730;37.818;2023-06-22T00:36:06;22.31;64.33
75155;HTU21D;63735;44.730;37.818;2023-06-22T00:38:38;22.29;64.38
75155;HTU21D;63735;44.730;37.818;2023-06-22T00:41:07;22.26;64.30
75155;HTU21D;63735;44.730;37.818;2023-06-22T00:43:35;22.25;64.11
75155;HTU21D;63735;44.730;37.818;2023-06-22T00:46:02;22.19;64.08
75155;HTU21D;63735;44.730;37.818;2023-06-22T00:48:28;22.20;64.07
75155;HTU21D;63735;44.730;37.818;2023-06-22T00:50:54;22.19;64.11
75155;HTU21D;63735;44.730;37.818;2023-06-22T00:53:23;22.18;64.16
75155;HTU21D;63735;44.730;37.818;2023-06-22T00:55:49;22.16;64.23
75155;HTU21D;63735;44.730;37.818;2023-06-22T00:58:18;22.12;64.36
75155;HTU21D;63735;44.730;37.818;2023-06-22T01:00:48;22.10;64.42
75155;HTU21D;63735;44.730;37.818;2023-06-22T01:03:14;22.08;64.56
75155;HTU21D;63735;44.730;37.818;2023-06-22T01:05:42;22.06;64.64
75155;HTU21D;63735;44.730;37.818;2023-06-22T01:16:29;21.88;65.21
75155;HTU21D;63735;44.730;37.818;2023-06-22T01:18:57;21.81;65.30
75155;HTU21D;63735;44.730;37.818;2023-06-22T01:21:29;21.78;65.46
75155;HTU21D;63735;44.730;37.818;2023-06-22T01:26:58;21.81;65.43
75155;HTU21D;63735;44.730;37.818;2023-06-22T01:29:26;21.76;65.60
75155;HTU21D;63735;44.730;37.818;2023-06-22T01:31:56;21.72;65.78
75155;HTU21D;63735;44.730;37.818;2023-06-22T01:34:23;21.66;65.95
75155;HTU21D;63735;44.730;37.818;2023-06-22T01:36:50;21.61;66.10
75155;HTU21D;63735;44.730;37.818;2023-06-22T01:39:17;21.57;66.24
75155;HTU21D;63735;44.730;37.818;2023-06-22T01:41:44;21.53;66.33
75155;HTU21D;63735;44.730;37.818;2023-06-22T01:44:10;21.49;66.51
75155;HTU21D;63735;44.730;37.818;2023-06-22T01:46:37;21.45;66.71
75155;HTU21D;63735;44.730;37.818;2023-06-22T01:49:04;21.40;66.87
75155;HTU21D;63735;44.730;37.818;2023-06-22T01:51:31;21.37;66.98
75155;HTU21D;63735;44.730;37.818;2023-06-22T01:53:59;21.37;66.96
75155;HTU21D;63735;44.730;37.818;2023-06-22T01:56:26;21.36;67.01
75155;HTU21D;63735;44.730;37.818;2023-06-22T01:59:25;21.32;67.31
75155;HTU21D;63735;44.730;37.818;2023-06-22T02:02:05;21.25;67.33
75155;HTU21D;63735;44.730;37.818;2023-06-22T02:04:38;21.24;67.31
75155;HTU21D;63735;44.730;37.818;2023-06-22T02:07:09;21.24;67.27
75155;HTU21D;63735;44.730;37.818;2023-06-22T02:09:38;21.25;67.14
75155;HTU21D;63735;44.730;37.818;2023-06-22T02:12:08;21.23;67.28
75155;HTU21D;63735;44.730;37.818;2023-06-22T02:14:36;21.23;67.33
75155;HTU21D;63735;44.730;37.818;2023-06-22T02:17:03;21.22;67.46
75155;HTU21D;63735;44.730;37.818;2023-06-22T02:19:36;21.21;67.59
75155;HTU21D;63735;44.730;37.818;2023-06-22T02:22:03;21.19;67.55
75155;HTU21D;63735;44.730;37.818;2023-06-22T02:24:30;21.18;67.55
75155;HTU21D;63735;44.730;37.818;2023-06-22T02:26:58;21.18;67.55
75155;HTU21D;63735;44.730;37.818;2023-06-22T02:29:24;21.15;67.66
75155;HTU21D;63735;44.730;37.818;2023-06-22T02:31:50;21.11;67.70
75155;HTU21D;63735;44.730;37.818;2023-06-22T02:34:16;21.13;67.54
75155;HTU21D;63735;44.730;37.818;2023-06-22T02:36:50;21.14;67.55
75155;HTU21D;63735;44.730;37.818;2023-06-22T02:39:24;21.14;67.59
75155;HTU21D;63735;44.730;37.818;2023-06-22T02:41:51;21.16;67.52
75155;HTU21D;63735;44.730;37.818;2023-06-22T02:44:17;21.18;67.43
75155;HTU21D;63735;44.730;37.818;2023-06-22T02:46:43;21.19;67.38
75155;HTU21D;63735;44.730;37.818;2023-06-22T02:49:10;21.19;67.38
75155;HTU21D;63735;44.730;37.818;2023-06-22T02:51:38;21.21;67.37
75155;HTU21D;63735;44.730;37.818;2023-06-22T02:54:06;21.22;67.33
75155;HTU21D;63735;44.730;37.818;2023-06-22T02:56:32;21.25;67.20
75155;HTU21D;63735;44.730;37.818;2023-06-22T02:59:00;21.33;67.02
75155;HTU21D;63735;44.730;37.818;2023-06-22T03:01:29;21.39;66.80
75155;HTU21D;63735;44.730;37.818;2023-06-22T03:03:57;21.49;66.54
75155;HTU21D;63735;44.730;37.818;2023-06-22T03:06:23;21.59;66.18
75155;HTU21D;63735;44.730;37.818;2023-06-22T03:08:59;21.69;65.54
75155;HTU21D;63735;44.730;37.818;2023-06-22T03:11:27;21.83;64.94
75155;HTU21D;63735;44.730;37.818;2023-06-22T03:13:53;21.99;64.23
75155;HTU21D;63735;44.730;37.818;2023-06-22T03:16:19;22.11;63.63
75155;HTU21D;63735;44.730;37.818;2023-06-22T03:18:45;22.22;63.21
75155;HTU21D;63735;44.730;37.818;2023-06-22T03:21:12;22.31;62.86
75155;HTU21D;63735;44.730;37.818;2023-06-22T03:23:38;22.38;62.59
75155;HTU21D;63735;44.730;37.818;2023-06-22T03:26:05;22.47;62.29
75155;HTU21D;63735;44.730;37.818;2023-06-22T03:28:31;22.51;62.05
75155;HTU21D;63735;44.730;37.818;2023-06-22T03:31:00;22.58;61.76
75155;HTU21D;63735;44.730;37.818;2023-06-22T03:33:26;22.65;61.61
75155;HTU21D;63735;44.730;37.818;2023-06-22T03:35:52;22.69;61.41
75155;HTU21D;63735;44.730;37.818;2023-06-22T03:38:20;22.76;61.25
75155;HTU21D;63735;44.730;37.818;2023-06-22T03:40:46;22.83;61.04
75155;HTU21D;63735;44.730;37.818;2023-06-22T03:43:12;22.87;60.70
75155;HTU21D;63735;44.730;37.818;2023-06-22T03:45:38;22.92;60.38
75155;HTU21D;63735;44.730;37.818;2023-06-22T03:48:05;22.99;60.08
75155;HTU21D;63735;44.730;37.818;2023-06-22T03:50:31;23.08;59.68
75155;HTU21D;63735;44.730;37.818;2023-06-22T03:52:57;23.15;59.11
75155;HTU21D;63735;44.730;37.818;2023-06-22T03:55:23;23.18;58.90
75155;HTU21D;63735;44.730;37.818;2023-06-22T03:57:49;23.22;58.70
75155;HTU21D;63735;44.730;37.818;2023-06-22T04:00:15;23.29;58.52
75155;HTU21D;63735;44.730;37.818;2023-06-22T04:02:42;23.35;58.29
75155;HTU21D;63735;44.730;37.818;2023-06-22T04:05:09;23.42;57.89
75155;HTU21D;63735;44.730;37.818;2023-06-22T04:07:35;23.52;57.63
75155;HTU21D;63735;44.730;37.818;2023-06-22T04:10:04;23.60;57.22
75155;HTU21D;63735;44.730;37.818;2023-06-22T04:12:30;23.66;56.94
75155;HTU21D;63735;44.730;37.818;2023-06-22T04:14:55;23.73;56.76
75155;HTU21D;63735;44.730;37.818;2023-06-22T04:17:21;23.80;56.44
75155;HTU21D;63735;44.730;37.818;2023-06-22T04:19:51;23.87;56.23
75155;HTU21D;63735;44.730;37.818;2023-06-22T04:22:17;23.97;55.99
75155;HTU21D;63735;44.730;37.818;2023-06-22T04:24:43;24.04;55.71
75155;HTU21D;63735;44.730;37.818;2023-06-22T04:27:09;24.10;55.52
75155;HTU21D;63735;44.730;37.818;2023-06-22T04:29:36;24.16;55.08
75155;HTU21D;63735;44.730;37.818;2023-06-22T04:32:02;24.25;54.79
75155;HTU21D;63735;44.730;37.818;2023-06-22T04:34:31;24.33;54.65
75155;HTU21D;63735;44.730;37.818;2023-06-22T04:36:57;24.41;54.41
75155;HTU21D;63735;44.730;37.818;2023-06-22T04:39:23;24.47;54.33
75155;HTU21D;63735;44.730;37.818;2023-06-22T04:41:49;24.51;54.19
75155;HTU21D;63735;44.730;37.818;2023-06-22T04:44:18;24.57;54.07
75155;HTU21D;63735;44.730;37.818;2023-06-22T04:46:56;24.61;53.94
75155;HTU21D;63735;44.730;37.818;2023-06-22T04:49:35;24.59;53.52
75155;HTU21D;63735;44.730;37.818;2023-06-22T04:52:11;24.56;53.71
75155;HTU21D;63735;44.730;37.818;2023-06-22T04:54:39;24.59;53.72
75155;HTU21D;63735;44.730;37.818;2023-06-22T04:57:07;24.66;53.46
75155;HTU21D;63735;44.730;37.818;2023-06-22T04:59:37;24.73;53.37
75155;HTU21D;63735;44.730;37.818;2023-06-22T05:02:05;24.85;53.01
75155;HTU21D;63735;44.730;37.818;2023-06-22T05:04:31;24.85;52.88
75155;HTU21D;63735;44.730;37.818;2023-06-22T05:06:59;24.93;53.02
75155;HTU21D;63735;44.730;37.818;2023-06-22T05:09:25;25.05;52.75
75155;HTU21D;63735;44.730;37.818;2023-06-22T05:11:51;25.06;52.73
75155;HTU21D;63735;44.730;37.818;2023-06-22T05:14:18;25.12;52.57
75155;HTU21D;63735;44.730;37.818;2023-06-22T05:16:44;25.20;52.61
75155;HTU21D;63735;44.730;37.818;2023-06-22T05:19:11;25.25;52.66
75155;HTU21D;63735;44.730;37.818;2023-06-22T05:21:37;25.36;52.58
75155;HTU21D;63735;44.730;37.818;2023-06-22T05:24:04;25.48;52.46
75155;HTU21D;63735;44.730;37.818;2023-06-22T05:26:31;25.61;52.14
75155;HTU21D;63735;44.730;37.818;2023-06-22T05:28:57;25.69;51.87
75155;HTU21D;63735;44.730;37.818;2023-06-22T05:31:23;25.74;51.62
75155;HTU21D;63735;44.730;37.818;2023-06-22T05:33:52;25.79;51.61
75155;HTU21D;63735;44.730;37.818;2023-06-22T05:36:18;25.90;51.54
75155;HTU21D;63735;44.730;37.818;2023-06-22T05:38:51;25.97;51.37
75155;HTU21D;63735;44.730;37.818;2023-06-22T05:41:17;26.04;51.57
75155;HTU21D;63735;44.730;37.818;2023-06-22T05:43:43;26.06;51.44
75155;HTU21D;63735;44.730;37.818;2023-06-22T05:46:09;26.12;51.21
75155;HTU21D;63735;44.730;37.818;2023-06-22T05:48:35;26.23;51.16
75155;HTU21D;63735;44.730;37.818;2023-06-22T05:51:01;26.33;50.93
75155;HTU21D;63735;44.730;37.818;2023-06-22T05:53:27;26.35;50.86
75155;HTU21D;63735;44.730;37.818;2023-06-22T05:55:53;26.37;50.92
75155;HTU21D;63735;44.730;37.818;2023-06-22T05:58:19;26.45;50.99
75155;HTU21D;63735;44.730;37.818;2023-06-22T06:00:45;26.52;50.78
75155;HTU21D;63735;44.730;37.818;2023-06-22T06:03:12;26.48;50.57
75155;HTU21D;63735;44.730;37.818;2023-06-22T06:05:38;26.41;50.53
75155;HTU21D;63735;44.730;37.818;2023-06-22T06:08:05;26.41;50.72
75155;HTU21D;63735;44.730;37.818;2023-06-22T06:10:33;26.55;50.55
75155;HTU21D;63735;44.730;37.818;2023-06-22T06:12:59;26.71;50.44
75155;HTU21D;63735;44.730;37.818;2023-06-22T06:15:28;26.85;50.04
75155;HTU21D;63735;44.730;37.818;2023-06-22T06:17:54;26.92;49.81
75155;HTU21D;63735;44.730;37.818;2023-06-22T06:20:22;26.99;49.73
75155;HTU21D;63735;44.730;37.818;2023-06-22T06:22:48;27.10;49.38
75155;HTU21D;63735;44.730;37.818;2023-06-22T06:25:15;27.15;49.48
75155;HTU21D;63735;44.730;37.818;2023-06-22T06:27:50;27.16;49.60
75155;HTU21D;63735;44.730;37.818;2023-06-22T06:30:18;27.35;49.42
75155;HTU21D;63735;44.730;37.818;2023-06-22T06:32:45;27.50;48.93
75155;HTU21D;63735;44.730;37.818;2023-06-22T06:35:11;27.57;49.11
75155;HTU21D;63735;44.730;37.818;2023-06-22T06:37:39;27.73;48.37
75155;HTU21D;63735;44.730;37.818;2023-06-22T06:40:06;27.93;48.06
75155;HTU21D;63735;44.730;37.818;2023-06-22T06:42:40;28.18;47.28
75155;HTU21D;63735;44.730;37.818;2023-06-22T06:45:08;28.59;46.31
75155;HTU21D;63735;44.730;37.818;2023-06-22T06:47:34;29.00;45.59
75155;HTU21D;63735;44.730;37.818;2023-06-22T06:50:00;29.36;44.77
75155;HTU21D;63735;44.730;37.818;2023-06-22T06:52:26;29.81;43.67
75155;HTU21D;63735;44.730;37.818;2023-06-22T06:54:52;30.46;42.25
75155;HTU21D;63735;44.730;37.818;2023-06-22T06:57:18;30.70;41.13
75155;HTU21D;63735;44.730;37.818;2023-06-22T06:59:46;31.06;40.13
75155;HTU21D;63735;44.730;37.818;2023-06-22T07:02:12;32.19;38.39
75155;HTU21D;63735;44.730;37.818;2023-06-22T07:04:37;33.38;36.21
75155;HTU21D;63735;44.730;37.818;2023-06-22T07:07:04;34.35;34.49
75155;HTU21D;63735;44.730;37.818;2023-06-22T07:09:29;35.08;33.23
75155;HTU21D;63735;44.730;37.818;2023-06-22T07:11:55;35.27;32.83
75155;HTU21D;63735;44.730;37.818;2023-06-22T07:14:21;35.45;32.39
75155;HTU21D;63735;44.730;37.818;2023-06-22T07:16:47;35.59;32.04
75155;HTU21D;63735;44.730;37.818;2023-06-22T07:19:13;35.80;31.62
75155;HTU21D;63735;44.730;37.818;2023-06-22T07:21:39;35.95;31.19
75155;HTU21D;63735;44.730;37.818;2023-06-22T07:24:06;35.94;31.10
75155;HTU21D;63735;44.730;37.818;2023-06-22T07:26:33;35.93;31.09
75155;HTU21D;63735;44.730;37.818;2023-06-22T07:28:58;36.09;31.63
75155;HTU21D;63735;44.730;37.818;2023-06-22T07:31:25;35.71;31.70
75155;HTU21D;63735;44.730;37.818;2023-06-22T07:33:51;34.89;32.61
75155;HTU21D;63735;44.730;37.818;2023-06-22T07:36:18;33.87;34.18
75155;HTU21D;63735;44.730;37.818;2023-06-22T07:38:44;33.13;35.66
75155;HTU21D;63735;44.730;37.818;2023-06-22T07:41:10;32.48;36.77
75155;HTU21D;63735;44.730;37.818;2023-06-22T07:43:36;31.98;37.50
75155;HTU21D;63735;44.730;37.818;2023-06-22T07:46:06;31.60;38.40
75155;HTU21D;63735;44.730;37.818;2023-06-22T07:48:32;31.46;38.59
75155;HTU21D;63735;44.730;37.818;2023-06-22T07:50:58;31.34;38.75
75155;HTU21D;63735;44.730;37.818;2023-06-22T07:53:24;31.14;38.78
75155;HTU21D;63735;44.730;37.818;2023-06-22T07:55:50;30.87;39.40
75155;HTU21D;63735;44.730;37.818;2023-06-22T07:58:16;30.84;39.33
75155;HTU21D;63735;44.730;37.818;2023-06-22T08:00:44;30.82;39.08
75155;HTU21D;63735;44.730;37.818;2023-06-22T08:03:10;30.51;39.31
75155;HTU21D;63735;44.730;37.818;2023-06-22T08:05:36;30.41;39.18
75155;HTU21D;63735;44.730;37.818;2023-06-22T08:08:02;30.09;39.21
75155;HTU21D;63735;44.730;37.818;2023-06-22T08:10:28;29.87;39.63
75155;HTU21D;63735;44.730;37.818;2023-06-22T08:12:54;29.76;39.99
75155;HTU21D;63735;44.730;37.818;2023-06-22T08:15:20;29.79;40.06
75155;HTU21D;63735;44.730;37.818;2023-06-22T08:17:47;29.86;40.30
75155;HTU21D;63735;44.730;37.818;2023-06-22T08:20:14;30.16;40.02
75155;HTU21D;63735;44.730;37.818;2023-06-22T08:22:41;30.01;39.91
75155;HTU21D;63735;44.730;37.818;2023-06-22T08:25:08;30.06;39.82
75155;HTU21D;63735;44.730;37.818;2023-06-22T08:27:34;30.00;40.26
75155;HTU21D;63735;44.730;37.818;2023-06-22T08:30:01;30.27;39.94
75155;HTU21D;63735;44.730;37.818;2023-06-22T08:32:28;30.52;39.35
75155;HTU21D;63735;44.730;37.818;2023-06-22T08:34:55;30.35;39.38
75155;HTU21D;63735;44.730;37.818;2023-06-22T08:37:21;30.35;39.52
75155;HTU21D;63735;44.730;37.818;2023-06-22T08:39:58;30.36;38.92
75155;HTU21D;63735;44.730;37.818;2023-06-22T08:42:24;30.35;38.75
75155;HTU21D;63735;44.730;37.818;2023-06-22T08:44:51;30.19;39.14
75155;HTU21D;63735;44.730;37.818;2023-06-22T08:47:18;30.25;39.23
75155;HTU21D;63735;44.730;37.818;2023-06-22T08:49:47;30.19;39.10
75155;HTU21D;63735;44.730;37.818;2023-06-22T08:52:13;29.86;39.31
75155;HTU21D;63735;44.730;37.818;2023-06-22T08:54:39;29.94;39.80
75155;HTU21D;63735;44.730;37.818;2023-06-22T08:57:06;30.13;39.58
75155;HTU21D;63735;44.730;37.818;2023-06-22T08:59:32;30.06;39.46
75155;HTU21D;63735;44.730;37.818;2023-06-22T09:01:58;30.18;39.85
75155;HTU21D;63735;44.730;37.818;2023-06-22T09:04:46;30.44;39.47
75155;HTU21D;63735;44.730;37.818;2023-06-22T09:07:31;30.48;39.24
75155;HTU21D;63735;44.730;37.818;2023-06-22T09:09:57;30.45;39.29
75155;HTU21D;63735;44.730;37.818;2023-06-22T09:12:23;30.55;39.25
75155;HTU21D;63735;44.730;37.818;2023-06-22T09:14:51;30.70;38.98
75155;HTU21D;63735;44.730;37.818;2023-06-22T09:17:17;30.42;38.98
75155;HTU21D;63735;44.730;37.818;2023-06-22T09:19:43;30.24;39.36
75155;HTU21D;63735;44.730;37.818;2023-06-22T09:22:09;30.24;39.36
75155;HTU21D;63735;44.730;37.818;2023-06-22T09:24:35;30.26;39.62
75155;HTU21D;63735;44.730;37.818;2023-06-22T09:27:01;30.54;39.39
75155;HTU21D;63735;44.730;37.818;2023-06-22T09:29:27;30.66;39.09
75155;HTU21D;63735;44.730;37.818;2023-06-22T09:31:53;30.52;38.90
75155;HTU21D;63735;44.730;37.818;2023-06-22T09:34:19;30.27;38.95
75155;HTU21D;63735;44.730;37.818;2023-06-22T09:36:48;30.35;39.10
75155;HTU21D;63735;44.730;37.818;2023-06-22T09:39:14;30.38;39.01
75155;HTU21D;63735;44.730;37.818;2023-06-22T09:41:40;30.64;38.66
75155;HTU21D;63735;44.730;37.818;2023-06-22T09:44:06;30.70;38.45
75155;HTU21D;63735;44.730;37.818;2023-06-22T09:46:32;30.57;38.27
75155;HTU21D;63735;44.730;37.818;2023-06-22T09:48:58;30.56;38.24
75155;HTU21D;63735;44.730;37.818;2023-06-22T09:51:24;30.57;38.35
75155;HTU21D;63735;44.730;37.818;2023-06-22T09:53:51;30.59;38.44
75155;HTU21D;63735;44.730;37.818;2023-06-22T09:56:17;30.55;37.83
75155;HTU21D;63735;44.730;37.818;2023-06-22T09:58:44;30.30;38.35
75155;HTU21D;63735;44.730;37.818;2023-06-22T10:01:11;30.42;38.35
75155;HTU21D;63735;44.730;37.818;2023-06-22T10:03:40;30.79;38.31
75155;HTU21D;63735;44.730;37.818;2023-06-22T10:06:07;30.97;37.66
75155;HTU21D;63735;44.730;37.818;2023-06-22T10:08:34;31.00;37.69
75155;HTU21D;63735;44.730;37.818;2023-06-22T10:11:01;31.24;37.53
75155;HTU21D;63735;44.730;37.818;2023-06-22T10:13:27;31.36;37.26
75155;HTU21D;63735;44.730;37.818;2023-06-22T10:15:53;31.42;37.35
75155;HTU21D;63735;44.730;37.818;2023-06-22T10:18:19;31.33;36.93
75155;HTU21D;63735;44.730;37.818;2023-06-22T10:20:47;30.97;37.42
75155;HTU21D;63735;44.730;37.818;2023-06-22T10:23:13;30.79;37.67
75155;HTU21D;63735;44.730;37.818;2023-06-22T10:25:39;30.52;37.56
75155;HTU21D;63735;44.730;37.818;2023-06-22T10:28:04;30.01;37.98
75155;HTU21D;63735;44.730;37.818;2023-06-22T10:30:30;29.67;38.33
75155;HTU21D;63735;44.730;37.818;2023-06-22T10:32:56;29.91;38.35
75155;HTU21D;63735;44.730;37.818;2023-06-22T10:35:22;30.37;37.88
75155;HTU21D;63735;44.730;37.818;2023-06-22T10:37:48;30.72;36.76
75155;HTU21D;63735;44.730;37.818;2023-06-22T10:40:15;30.62;36.72
75155;HTU21D;63735;44.730;37.818;2023-06-22T10:42:42;30.53;36.82
75155;HTU21D;63735;44.730;37.818;2023-06-22T10:45:08;30.26;37.01
75155;HTU21D;63735;44.730;37.818;2023-06-22T10:47:35;30.11;37.39
75155;HTU21D;63735;44.730;37.818;2023-06-22T10:50:01;30.22;37.43
75155;HTU21D;63735;44.730;37.818;2023-06-22T10:52:27;30.56;37.12
75155;HTU21D;63735;44.730;37.818;2023-06-22T10:54:53;30.89;36.31
75155;HTU21D;63735;44.730;37.818;2023-06-22T10:57:19;30.92;36.28
75155;HTU21D;63735;44.730;37.818;2023-06-22T10:59:45;31.06;35.95
75155;HTU21D;63735;44.730;37.818;2023-06-22T11:02:11;31.16;35.89
75155;HTU21D;63735;44.730;37.818;2023-06-22T11:04:37;31.25;34.89
75155;HTU21D;63735;44.730;37.818;2023-06-22T11:07:03;30.66;35.22
75155;HTU21D;63735;44.730;37.818;2023-06-22T11:09:29;30.25;35.56
75155;HTU21D;63735;44.730;37.818;2023-06-22T11:11:55;30.17;35.90
75155;HTU21D;63735;44.730;37.818;2023-06-22T11:14:22;30.21;35.73
75155;HTU21D;63735;44.730;37.818;2023-06-22T11:16:48;30.21;35.95
75155;HTU21D;63735;44.730;37.818;2023-06-22T11:19:14;30.26;35.91
75155;HTU21D;63735;44.730;37.818;2023-06-22T11:21:40;30.26;35.69
75155;HTU21D;63735;44.730;37.818;2023-06-22T11:24:06;30.10;35.05
75155;HTU21D;63735;44.730;37.818;2023-06-22T11:26:32;29.94;35.57
75155;HTU21D;63735;44.730;37.818;2023-06-22T11:28:58;30.08;35.62
75155;HTU21D;63735;44.730;37.818;2023-06-22T11:31:24;30.31;35.55
75155;HTU21D;63735;44.730;37.818;2023-06-22T11:33:50;30.49;35.18
75155;HTU21D;63735;44.730;37.818;2023-06-22T11:36:16;30.64;35.18
75155;HTU21D;63735;44.730;37.818;2023-06-22T11:38:43;30.66;35.14
75155;HTU21D;63735;44.730;37.818;2023-06-22T11:41:09;30.84;34.95
75155;HTU21D;63735;44.730;37.818;2023-06-22T11:43:36;30.89;34.77
75155;HTU21D;63735;44.730;37.818;2023-06-22T11:46:03;30.76;34.72
75155;HTU21D;63735;44.730;37.818;2023-06-22T11:48:30;30.50;34.37
75155;HTU21D;63735;44.730;37.818;2023-06-22T11:50:56;30.41;34.47
75155;HTU21D;63735;44.730;37.818;2023-06-22T11:53:24;30.46;34.47
75155;HTU21D;63735;44.730;37.818;2023-06-22T11:55:50;30.53;34.50
75155;HTU21D;63735;44.730;37.818;2023-06-22T11:58:16;30.63;34.22
75155;HTU21D;63735;44.730;37.818;2023-06-22T12:00:42;30.60;33.91
75155;HTU21D;63735;44.730;37.818;2023-06-22T12:03:08;30.46;33.96
75155;HTU21D;63735;44.730;37.818;2023-06-22T12:05:35;29.94;34.22
75155;HTU21D;63735;44.730;37.818;2023-06-22T12:08:01;29.97;34.65
75155;HTU21D;63735;44.730;37.818;2023-06-22T12:10:27;30.20;34.16
75155;HTU21D;63735;44.730;37.818;2023-06-22T12:12:56;30.36;34.15
75155;HTU21D;63735;44.730;37.818;2023-06-22T12:15:23;30.35;33.79
75155;HTU21D;63735;44.730;37.818;2023-06-22T12:17:49;30.34;33.95
75155;HTU21D;63735;44.730;37.818;2023-06-22T12:20:15;30.56;33.63
75155;HTU21D;63735;44.730;37.818;2023-06-22T12:22:41;30.41;32.94
75155;HTU21D;63735;44.730;37.818;2023-06-22T12:25:08;30.01;33.17
75155;HTU21D;63735;44.730;37.818;2023-06-22T12:27:35;29.91;33.72
75155;HTU21D;63735;44.730;37.818;2023-06-22T12:30:01;29.92;33.54
75155;HTU21D;63735;44.730;37.818;2023-06-22T12:32:27;29.68;33.79
75155;HTU21D;63735;44.730;37.818;2023-06-22T12:34:52;29.63;33.93
75155;HTU21D;63735;44.730;37.818;2023-06-22T12:37:18;29.72;33.80
75155;HTU21D;63735;44.730;37.818;2023-06-22T12:39:44;29.73;33.92
75155;HTU21D;63735;44.730;37.818;2023-06-22T12:42:10;29.82;33.91
75155;HTU21D;63735;44.730;37.818;2023-06-22T12:44:38;29.79;33.29
75155;HTU21D;63735;44.730;37.818;2023-06-22T12:47:04;29.67;33.38
75155;HTU21D;63735;44.730;37.818;2023-06-22T12:49:30;29.66;33.60
75155;HTU21D;63735;44.730;37.818;2023-06-22T12:51:56;29.79;33.38
75155;HTU21D;63735;44.730;37.818;2023-06-22T12:54:22;29.83;33.11
75155;HTU21D;63735;44.730;37.818;2023-06-22T12:56:50;29.77;33.13
75155;HTU21D;63735;44.730;37.818;2023-06-22T12:59:16;29.66;33.10
75155;HTU21D;63735;44.730;37.818;2023-06-22T13:01:43;29.63;33.28
75155;HTU21D;63735;44.730;37.818;2023-06-22T13:04:11;29.64;33.25
75155;HTU21D;63735;44.730;37.818;2023-06-22T13:06:43;29.60;33.40
75155;HTU21D;63735;44.730;37.818;2023-06-22T13:09:10;29.66;33.31
75155;HTU21D;63735;44.730;37.818;2023-06-22T13:11:36;29.62;33.20
75155;HTU21D;63735;44.730;37.818;2023-06-22T13:14:02;29.45;33.21
75155;HTU21D;63735;44.730;37.818;2023-06-22T13:16:28;29.45;33.12
75155;HTU21D;63735;44.730;37.818;2023-06-22T13:18:53;29.43;32.83
75155;HTU21D;63735;44.730;37.818;2023-06-22T13:21:19;29.22;32.62
75155;HTU21D;63735;44.730;37.818;2023-06-22T13:23:45;29.02;32.92
75155;HTU21D;63735;44.730;37.818;2023-06-22T13:26:11;28.95;33.22
75155;HTU21D;63735;44.730;37.818;2023-06-22T13:28:37;28.86;33.24
75155;HTU21D;63735;44.730;37.818;2023-06-22T13:31:03;28.86;33.48
75155;HTU21D;63735;44.730;37.818;2023-06-22T13:33:28;28.93;33.33
75155;HTU21D;63735;44.730;37.818;2023-06-22T13:35:54;28.97;33.41
75155;HTU21D;63735;44.730;37.818;2023-06-22T13:38:20;29.06;33.29
75155;HTU21D;63735;44.730;37.818;2023-06-22T13:40:48;29.09;33.34
75155;HTU21D;63735;44.730;37.818;2023-06-22T13:43:15;29.20;33.16
75155;HTU21D;63735;44.730;37.818;2023-06-22T13:45:43;29.26;33.11
75155;HTU21D;63735;44.730;37.818;2023-06-22T13:48:09;29.35;33.09
75155;HTU21D;63735;44.730;37.818;2023-06-22T13:50:35;29.39;32.67
75155;HTU21D;63735;44.730;37.818;2023-06-22T13:53:01;29.33;32.65
75155;HTU21D;63735;44.730;37.818;2023-06-22T13:55:27;29.23;32.71
75155;HTU21D;63735;44.730;37.818;2023-06-22T13:57:53;29.20;32.60
75155;HTU21D;63735;44.730;37.818;2023-06-22T14:00:19;29.06;32.70
75155;HTU21D;63735;44.730;37.818;2023-06-22T14:02:45;28.91;32.90
75155;HTU21D;63735;44.730;37.818;2023-06-22T14:05:11;28.77;33.12
75155;HTU21D;63735;44.730;37.818;2023-06-22T14:07:37;28.69;33.24
75155;HTU21D;63735;44.730;37.818;2023-06-22T14:10:05;28.65;33.47
75155;HTU21D;63735;44.730;37.818;2023-06-22T14:12:31;28.69;33.52
75155;HTU21D;63735;44.730;37.818;2023-06-22T14:14:57;28.71;33.44
75155;HTU21D;63735;44.730;37.818;2023-06-22T14:17:23;28.73;33.50
75155;HTU21D;63735;44.730;37.818;2023-06-22T14:19:51;28.80;33.63
75155;HTU21D;63735;44.730;37.818;2023-06-22T14:22:21;28.75;33.52
75155;HTU21D;63735;44.730;37.818;2023-06-22T14:24:48;28.72;33.61
75155;HTU21D;63735;44.730;37.818;2023-06-22T14:27:15;28.68;33.60
75155;HTU21D;63735;44.730;37.818;2023-06-22T14:29:40;28.70;33.76
75155;HTU21D;63735;44.730;37.818;2023-06-22T14:32:07;28.57;33.76
75155;HTU21D;63735;44.730;37.818;2023-06-22T14:34:34;28.41;33.86
75155;HTU21D;63735;44.730;37.818;2023-06-22T14:37:02;28.28;34.11
75155;HTU21D;63735;44.730;37.818;2023-06-22T14:39:28;28.23;34.24
75155;HTU21D;63735;44.730;37.818;2023-06-22T14:41:54;28.18;34.27
75155;HTU21D;63735;44.730;37.818;2023-06-22T14:44:20;28.14;34.31
75155;HTU21D;63735;44.730;37.818;2023-06-22T14:46:46;28.15;34.43
75155;HTU21D;63735;44.730;37.818;2023-06-22T14:49:12;28.16;34.32
75155;HTU21D;63735;44.730;37.818;2023-06-22T14:51:38;28.09;34.38
75155;HTU21D;63735;44.730;37.818;2023-06-22T14:54:04;27.99;34.40
75155;HTU21D;63735;44.730;37.818;2023-06-22T14:56:30;27.90;34.53
75155;HTU21D;63735;44.730;37.818;2023-06-22T14:58:56;27.87;34.47
75155;HTU21D;63735;44.730;37.818;2023-06-22T15:01:22;27.84;34.51
75155;HTU21D;63735;44.730;37.818;2023-06-22T15:03:48;27.78;34.48
75155;HTU21D;63735;44.730;37.818;2023-06-22T15:06:14;27.67;34.70
75155;HTU21D;63735;44.730;37.818;2023-06-22T15:08:40;27.60;34.65
75155;HTU21D;63735;44.730;37.818;2023-06-22T15:11:07;27.54;34.76
75155;HTU21D;63735;44.730;37.818;2023-06-22T15:13:34;27.53;34.36